createdAt,value
2023-07-04T00:00:55.634Z,15.65
2023-07-04T00:01:56.620Z,15.64
2023-07-04T00:02:57.621Z,15.63
2023-07-04T00:03:58.596Z,15.61
2023-07-04T00:04:58.484Z,15.60
2023-07-04T00:05:07.079Z,15.33
2023-07-04T00:06:07.233Z,15.33
2023-07-04T00:07:08.144Z,15.33
2023-07-04T00:08:08.921Z,15.33
2023-07-04T00:09:09.006Z,15.33
2023-07-04T00:10:10.017Z,15.33
2023-07-04T00:11:10.962Z,15.32
2023-07-04T00:12:11.935Z,15.32
2023-07-04T00:13:12.113Z,15.32
2023-07-04T00:14:12.157Z,15.32
2023-07-04T00:15:13.014Z,15.32
2023-07-04T00:16:13.936Z,15.32
2023-07-04T00:17:14.856Z,15.32
2023-07-04T00:18:15.063Z,15.32
2023-07-04T00:19:14.991Z,15.31
2023-07-04T00:20:15.295Z,15.31
2023-07-04T00:21:16.153Z,15.31
2023-07-04T00:22:15.909Z,15.30
2023-07-04T00:23:16.560Z,15.30
2023-07-04T00:24:17.102Z,15.29
2023-07-04T00:25:17.170Z,15.29
2023-07-04T00:26:17.875Z,15.29
2023-07-04T00:27:17.966Z,15.28
2023-07-04T00:28:18.979Z,15.28
2023-07-04T00:29:19.745Z,15.27
2023-07-04T00:30:20.830Z,15.27
2023-07-04T00:31:20.823Z,15.26
2023-07-04T00:32:21.924Z,15.25
2023-07-04T00:33:22.072Z,15.25
2023-07-04T00:34:22.293Z,15.24
2023-07-04T00:35:22.573Z,15.23
2023-07-04T00:36:22.758Z,15.23
2023-07-04T00:37:22.765Z,15.22
2023-07-04T00:37:32.917Z,15.14
2023-07-04T00:38:33.869Z,15.14
2023-07-04T00:39:34.601Z,15.14
2023-07-04T00:40:35.179Z,15.13
2023-07-04T00:41:35.357Z,15.13
2023-07-04T00:42:35.323Z,15.13
2023-07-04T00:43:36.226Z,15.12
2023-07-04T00:44:36.253Z,15.12
2023-07-04T00:45:36.299Z,15.12
2023-07-04T00:46:37.699Z,15.12
2023-07-04T00:47:37.594Z,15.11
2023-07-04T00:48:37.511Z,15.11
2023-07-04T00:49:37.520Z,15.10
2023-07-04T00:50:37.599Z,15.10
2023-07-04T00:51:37.651Z,15.08
2023-07-04T00:52:37.748Z,15.07
2023-07-04T00:53:37.855Z,15.06
2023-07-04T00:54:38.819Z,15.05
2023-07-04T00:55:38.874Z,15.03
2023-07-04T00:56:38.930Z,15.02
2023-07-04T00:57:39.948Z,15.01
2023-07-04T00:58:39.908Z,15.01
2023-07-04T00:59:40.892Z,15.00
2023-07-04T01:00:41.792Z,14.99
2023-07-04T01:01:41.892Z,14.98
2023-07-04T01:02:42.096Z,14.98
2023-07-04T01:03:42.726Z,14.97
2023-07-04T01:04:43.515Z,14.96
2023-07-04T01:05:44.382Z,14.95
2023-07-04T01:06:44.445Z,14.95
2023-07-04T01:07:44.523Z,14.94
2023-07-04T01:08:45.005Z,14.93
2023-07-04T01:09:45.828Z,14.93
2023-07-04T01:09:57.968Z,14.77
2023-07-04T01:10:57.989Z,14.77
2023-07-04T01:11:58.668Z,14.77
2023-07-04T01:12:58.890Z,14.77
2023-07-04T01:14:00.087Z,14.77
2023-07-04T01:15:00.579Z,14.76
2023-07-04T01:16:00.727Z,14.76
2023-07-04T01:17:00.750Z,14.76
2023-07-04T01:18:01.105Z,14.75
2023-07-04T01:19:01.425Z,14.75
2023-07-04T01:20:01.607Z,14.74
2023-07-04T01:21:01.954Z,14.74
2023-07-04T01:22:02.840Z,14.73
2023-07-04T01:23:02.972Z,14.73
2023-07-04T01:24:03.724Z,14.73
2023-07-04T01:25:04.657Z,14.73
2023-07-04T01:26:04.723Z,14.73
2023-07-04T01:27:04.808Z,14.73
2023-07-04T01:28:04.917Z,14.72
2023-07-04T01:29:04.962Z,14.72
2023-07-04T01:30:12.998Z,14.72
2023-07-04T01:31:05.347Z,14.73
2023-07-04T01:32:06.351Z,14.73
2023-07-04T01:33:07.184Z,14.74
2023-07-04T01:34:07.167Z,14.74
2023-07-04T01:35:08.022Z,14.74
2023-07-04T01:36:08.975Z,14.75
2023-07-04T01:37:09.805Z,14.75
2023-07-04T01:38:10.719Z,14.75
2023-07-04T01:39:11.629Z,14.75
2023-07-04T01:40:12.463Z,14.75
2023-07-04T01:41:12.838Z,14.75
2023-07-04T01:41:23.472Z,14.73
2023-07-04T01:42:24.387Z,14.73
2023-07-04T01:43:25.356Z,14.73
2023-07-04T01:44:25.435Z,14.73
2023-07-04T01:45:26.385Z,14.73
2023-07-04T01:46:27.350Z,14.72
2023-07-04T01:47:27.511Z,14.72
2023-07-04T01:48:28.297Z,14.72
2023-07-04T01:49:29.218Z,14.71
2023-07-04T01:50:30.064Z,14.71
2023-07-04T01:51:30.154Z,14.70
2023-07-04T01:52:30.604Z,14.70
2023-07-04T01:53:31.381Z,14.70
2023-07-04T01:54:32.260Z,14.70
2023-07-04T01:55:32.345Z,14.71
2023-07-04T01:56:33.305Z,14.70
2023-07-04T01:57:34.165Z,14.70
2023-07-04T01:58:34.964Z,14.70
2023-07-04T01:59:35.799Z,14.70
2023-07-04T02:00:35.946Z,14.70
2023-07-04T02:01:35.985Z,14.70
2023-07-04T02:02:37.041Z,14.70
2023-07-04T02:03:37.999Z,14.70
2023-07-04T02:04:38.652Z,14.70
2023-07-04T02:05:39.469Z,14.70
2023-07-04T02:06:40.359Z,14.70
2023-07-04T02:07:41.274Z,14.69
2023-07-04T02:08:42.088Z,14.69
2023-07-04T02:09:42.889Z,14.69
2023-07-04T02:10:43.790Z,14.69
2023-07-04T02:11:43.813Z,14.68
2023-07-04T02:12:44.623Z,14.68
2023-07-04T02:12:53.692Z,14.61
2023-07-04T02:13:54.051Z,14.61
2023-07-04T02:14:54.305Z,14.61
2023-07-04T02:15:55.186Z,14.61
2023-07-04T02:16:56.081Z,14.61
2023-07-04T02:17:56.932Z,14.61
2023-07-04T02:18:58.916Z,14.61
2023-07-04T02:19:57.783Z,14.61
2023-07-04T02:20:58.639Z,14.60
2023-07-04T02:21:59.622Z,14.60
2023-07-04T02:23:00.510Z,14.59
2023-07-04T02:24:01.222Z,14.58
2023-07-04T02:25:02.100Z,14.57
2023-07-04T02:26:02.959Z,14.57
2023-07-04T02:27:03.884Z,14.57
2023-07-04T02:28:04.824Z,14.56
2023-07-04T02:29:05.692Z,14.55
2023-07-04T02:30:06.597Z,14.54
2023-07-04T02:31:07.614Z,14.53
2023-07-04T02:32:07.625Z,14.53
2023-07-04T02:33:08.433Z,14.52
2023-07-04T02:34:08.483Z,14.52
2023-07-04T02:35:09.332Z,14.51
2023-07-04T02:36:10.138Z,14.51
2023-07-04T02:37:11.101Z,14.50
2023-07-04T02:38:12.074Z,14.49
2023-07-04T02:39:12.928Z,14.48
2023-07-04T02:40:13.810Z,14.46
2023-07-04T02:41:14.594Z,14.45
2023-07-04T02:42:15.525Z,14.43
2023-07-04T02:43:15.673Z,14.41
2023-07-04T02:44:16.521Z,14.39
2023-07-04T02:44:25.134Z,14.07
2023-07-04T02:45:26.021Z,14.07
2023-07-04T02:46:26.902Z,14.07
2023-07-04T02:47:28.012Z,14.06
2023-07-04T02:48:28.579Z,14.06
2023-07-04T02:49:28.590Z,14.05
2023-07-04T02:50:28.744Z,14.05
2023-07-04T02:51:29.591Z,14.04
2023-07-04T02:52:30.324Z,14.03
2023-07-04T02:53:31.193Z,14.01
2023-07-04T02:54:31.587Z,13.99
2023-07-04T02:55:32.328Z,13.97
2023-07-04T02:56:33.051Z,13.96
2023-07-04T02:57:33.871Z,13.94
2023-07-04T02:58:34.646Z,13.93
2023-07-04T02:59:35.336Z,13.91
2023-07-04T03:00:36.166Z,13.90
2023-07-04T03:01:37.063Z,13.88
2023-07-04T03:02:38.042Z,13.87
2023-07-04T03:03:38.799Z,13.85
2023-07-04T03:04:39.495Z,13.83
2023-07-04T03:05:40.242Z,13.81
2023-07-04T03:06:40.514Z,13.79
2023-07-04T03:07:40.626Z,13.77
2023-07-04T03:08:41.330Z,13.74
2023-07-04T03:09:42.048Z,13.72
2023-07-04T03:10:42.934Z,13.69
2023-07-04T03:11:43.766Z,13.67
2023-07-04T03:12:44.606Z,13.65
2023-07-04T03:13:45.367Z,13.63
2023-07-04T03:14:45.390Z,13.61
2023-07-04T03:15:46.173Z,13.59
2023-07-04T03:15:54.871Z,13.21
2023-07-04T03:16:55.636Z,13.21
2023-07-04T03:17:56.529Z,13.21
2023-07-04T03:18:57.251Z,13.21
2023-07-04T03:19:57.387Z,13.21
2023-07-04T03:20:58.186Z,13.21
2023-07-04T03:21:58.206Z,13.20
2023-07-04T03:22:59.126Z,13.20
2023-07-04T03:23:59.877Z,13.20
2023-07-04T03:25:00.836Z,13.20
2023-07-04T03:26:01.538Z,13.20
2023-07-04T03:27:02.418Z,13.19
2023-07-04T03:28:03.162Z,13.18
2023-07-04T03:29:03.218Z,13.17
2023-07-04T03:30:03.652Z,13.16
2023-07-04T03:31:04.624Z,13.16
2023-07-04T03:32:05.466Z,13.15
2023-07-04T03:33:06.535Z,13.14
2023-07-04T03:34:07.308Z,13.13
2023-07-04T03:35:08.068Z,13.12
2023-07-04T03:36:08.839Z,13.11
2023-07-04T03:37:09.552Z,13.11
2023-07-04T03:38:10.584Z,13.10
2023-07-04T03:39:11.326Z,13.09
2023-07-04T03:40:12.204Z,13.07
2023-07-04T03:41:12.921Z,13.05
2023-07-04T03:42:13.683Z,13.04
2023-07-04T03:43:14.564Z,13.03
2023-07-04T03:44:15.433Z,13.02
2023-07-04T03:45:15.710Z,13.01
2023-07-04T03:46:16.470Z,13.00
2023-07-04T03:47:17.171Z,13.00
2023-07-04T03:47:25.902Z,12.85
2023-07-04T03:48:25.997Z,12.85
2023-07-04T03:49:26.773Z,12.85
2023-07-04T03:50:27.506Z,12.85
2023-07-04T03:51:28.198Z,12.85
2023-07-04T03:52:29.061Z,12.85
2023-07-04T03:53:29.842Z,12.85
2023-07-04T03:54:30.632Z,12.86
2023-07-04T03:55:31.603Z,12.86
2023-07-04T03:56:32.064Z,12.87
2023-07-04T03:57:32.876Z,12.87
2023-07-04T03:58:33.697Z,12.87
2023-07-04T03:59:34.476Z,12.87
2023-07-04T04:00:35.197Z,12.88
2023-07-04T04:01:35.343Z,12.88
2023-07-04T04:02:36.153Z,12.89
2023-07-04T04:03:37.006Z,12.90
2023-07-04T04:04:40.140Z,12.90
2023-07-04T04:05:38.521Z,12.91
2023-07-04T04:06:39.482Z,12.92
2023-07-04T04:07:40.340Z,12.93
2023-07-04T04:08:40.584Z,12.94
2023-07-04T04:09:41.378Z,12.95
2023-07-04T04:10:42.322Z,12.97
2023-07-04T04:11:43.122Z,12.98
2023-07-04T04:12:43.219Z,13.00
2023-07-04T04:13:44.193Z,13.02
2023-07-04T04:14:44.846Z,13.04
2023-07-04T04:15:45.638Z,13.07
2023-07-04T04:16:45.852Z,13.09
2023-07-04T04:17:46.654Z,13.11
2023-07-04T04:18:47.624Z,13.14
2023-07-04T04:19:47.747Z,13.17
2023-07-04T04:19:56.460Z,13.65
2023-07-04T04:20:56.549Z,13.65
2023-07-04T04:21:57.376Z,13.65
2023-07-04T04:22:58.167Z,13.65
2023-07-04T04:23:58.170Z,13.67
2023-07-04T04:24:59.168Z,13.68
2023-07-04T04:25:59.940Z,13.69
2023-07-04T04:27:00.858Z,13.70
2023-07-04T04:28:01.781Z,13.72
2023-07-04T04:29:02.093Z,13.74
2023-07-04T04:30:04.402Z,13.75
2023-07-04T04:31:03.097Z,13.78
2023-07-04T04:32:03.408Z,13.80
2023-07-04T04:33:04.386Z,13.82
2023-07-04T04:34:05.215Z,13.84
2023-07-04T04:35:06.071Z,13.87
2023-07-04T04:36:06.265Z,13.90
2023-07-04T04:37:07.096Z,13.93
2023-07-04T04:38:07.263Z,13.96
2023-07-04T04:39:07.590Z,14.00
2023-07-04T04:40:08.444Z,14.04
2023-07-04T04:41:09.204Z,14.08
2023-07-04T04:42:10.026Z,14.11
2023-07-04T04:43:10.850Z,14.15
2023-07-04T04:44:11.721Z,14.18
2023-07-04T04:45:11.740Z,14.22
2023-07-04T04:46:12.673Z,14.25
2023-07-04T04:47:13.503Z,14.28
2023-07-04T04:48:14.376Z,14.31
2023-07-04T04:49:15.281Z,14.35
2023-07-04T04:50:16.099Z,14.38
2023-07-04T04:50:24.766Z,15.05
2023-07-04T04:51:25.530Z,15.05
2023-07-04T04:52:25.795Z,15.06
2023-07-04T04:53:26.593Z,15.07
2023-07-04T04:54:27.378Z,15.07
2023-07-04T04:55:28.086Z,15.07
2023-07-04T04:56:28.801Z,15.06
2023-07-04T04:57:28.943Z,15.07
2023-07-04T04:58:29.795Z,15.09
2023-07-04T04:59:30.597Z,15.11
2023-07-04T05:00:31.257Z,15.14
2023-07-04T05:01:32.290Z,15.16
2023-07-04T05:02:33.173Z,15.19
2023-07-04T05:03:34.077Z,15.22
2023-07-04T05:04:34.701Z,15.26
2023-07-04T05:05:35.420Z,15.32
2023-07-04T05:06:35.703Z,15.38
2023-07-04T05:07:36.454Z,15.45
2023-07-04T05:08:36.739Z,15.53
2023-07-04T05:09:37.024Z,15.62
2023-07-04T05:10:37.822Z,15.70
2023-07-04T05:11:38.810Z,15.77
2023-07-04T05:12:38.825Z,15.85
2023-07-04T05:13:39.181Z,15.95
2023-07-04T05:14:39.542Z,16.06
2023-07-04T05:15:39.852Z,16.19
2023-07-04T05:16:40.329Z,16.30
2023-07-04T05:17:40.518Z,16.42
2023-07-04T05:18:40.517Z,16.56
2023-07-04T05:19:41.363Z,16.69
2023-07-04T05:20:42.219Z,16.80
2023-07-04T05:21:43.172Z,16.92
2023-07-04T05:22:44.153Z,17.05
2023-07-04T05:22:53.849Z,18.78
2023-07-04T05:23:54.413Z,18.78
2023-07-04T05:24:54.401Z,18.81
2023-07-04T05:25:55.385Z,18.85
2023-07-04T05:26:56.168Z,18.90
2023-07-04T05:27:56.856Z,18.93
2023-07-04T05:28:56.898Z,18.98
2023-07-04T05:29:57.156Z,19.03
2023-07-04T05:30:57.808Z,19.08
2023-07-04T05:31:58.046Z,19.14
2023-07-04T05:32:58.964Z,19.21
2023-07-04T05:33:59.934Z,19.29
2023-07-04T05:35:00.220Z,19.38
2023-07-04T05:36:01.176Z,19.47
2023-07-04T05:37:01.283Z,19.55
2023-07-04T05:38:01.844Z,19.64
2023-07-04T05:39:01.875Z,19.70
2023-07-04T05:40:01.954Z,19.77
2023-07-04T05:41:02.658Z,19.83
2023-07-04T05:42:02.830Z,19.88
2023-07-04T05:43:03.700Z,19.95
2023-07-04T05:44:04.682Z,20.02
2023-07-04T05:45:04.709Z,20.06
2023-07-04T05:46:04.854Z,20.11
2023-07-04T05:47:05.539Z,20.17
2023-07-04T05:48:06.290Z,20.20
2023-07-04T05:49:07.201Z,20.24
2023-07-04T05:50:08.096Z,20.28
2023-07-04T05:51:08.859Z,20.34
2023-07-04T05:52:09.709Z,20.37
2023-07-04T05:53:10.673Z,20.44
2023-07-04T05:54:11.528Z,20.51
2023-07-04T05:54:20.668Z,21.70
2023-07-04T05:55:21.595Z,21.70
2023-07-04T05:56:22.179Z,21.67
2023-07-04T05:57:23.028Z,21.60
2023-07-04T05:58:23.077Z,21.55
2023-07-04T05:59:24.050Z,21.54
2023-07-04T06:00:24.107Z,21.53
2023-07-04T06:01:24.914Z,21.53
2023-07-04T06:02:25.722Z,21.52
2023-07-04T06:03:26.562Z,21.51
2023-07-04T06:04:27.174Z,21.52
2023-07-04T06:05:27.964Z,21.51
2023-07-04T06:06:28.872Z,21.51
2023-07-04T06:07:29.733Z,21.53
2023-07-04T06:08:30.577Z,21.57
2023-07-04T06:09:31.569Z,21.63
2023-07-04T06:10:31.598Z,21.68
2023-07-04T06:11:32.385Z,21.72
2023-07-04T06:12:32.433Z,21.78
2023-07-04T06:13:32.589Z,21.86
2023-07-04T06:14:32.584Z,21.92
2023-07-04T06:15:33.633Z,21.96
2023-07-04T06:16:34.479Z,22.03
2023-07-04T06:17:35.521Z,22.12
2023-07-04T06:18:35.730Z,22.22
2023-07-04T06:19:35.752Z,22.30
2023-07-04T06:20:36.155Z,22.44
2023-07-04T06:21:43.852Z,22.55
2023-07-04T06:22:37.224Z,22.68
2023-07-04T06:23:38.174Z,22.83
2023-07-04T06:24:38.946Z,22.95
2023-07-04T06:25:39.922Z,23.09
2023-07-04T06:25:48.543Z,25.52
2023-07-04T06:26:48.986Z,25.52
2023-07-04T06:27:49.143Z,25.54
2023-07-04T06:28:49.940Z,25.57
2023-07-04T06:29:50.747Z,25.59
2023-07-04T06:30:51.910Z,25.62
2023-07-04T06:31:52.698Z,25.66
2023-07-04T06:32:53.379Z,25.69
2023-07-04T06:33:53.980Z,25.73
2023-07-04T06:34:54.775Z,25.76
2023-07-04T06:35:54.903Z,25.79
2023-07-04T06:36:55.646Z,25.82
2023-07-04T06:37:56.489Z,25.75
2023-07-04T06:38:57.428Z,25.72
2023-07-04T06:39:58.180Z,25.68
2023-07-04T06:40:59.021Z,25.65
2023-07-04T06:41:59.737Z,25.61
2023-07-04T06:43:00.576Z,25.51
2023-07-04T06:44:01.436Z,25.44
2023-07-04T06:45:02.255Z,25.40
2023-07-04T06:46:03.208Z,25.35
2023-07-04T06:47:04.106Z,25.27
2023-07-04T06:48:04.189Z,25.16
2023-07-04T06:49:04.654Z,25.04
2023-07-04T06:50:05.458Z,24.89
2023-07-04T06:51:06.425Z,24.75
2023-07-04T06:52:08.380Z,24.63
2023-07-04T06:53:07.577Z,24.55
2023-07-04T06:54:08.743Z,24.49
2023-07-04T06:55:09.307Z,24.39
2023-07-04T06:56:09.912Z,24.33
2023-07-04T06:56:18.584Z,22.97
2023-07-04T06:57:20.245Z,22.96
2023-07-04T06:58:19.443Z,22.96
2023-07-04T06:59:20.302Z,22.95
2023-07-04T07:00:21.286Z,22.92
2023-07-04T07:01:21.405Z,22.89
2023-07-04T07:02:21.572Z,22.87
2023-07-04T07:03:22.433Z,22.86
2023-07-04T07:04:22.534Z,22.88
2023-07-04T07:05:24.264Z,22.93
2023-07-04T07:06:23.556Z,22.98
2023-07-04T07:07:24.428Z,22.99
2023-07-04T07:08:25.291Z,23.00
2023-07-04T07:09:26.080Z,23.01
2023-07-04T07:10:26.988Z,23.01
2023-07-04T07:11:27.040Z,23.00
2023-07-04T07:12:27.100Z,23.01
2023-07-04T07:13:27.206Z,22.99
2023-07-04T07:14:27.444Z,22.97
2023-07-04T07:15:27.844Z,22.95
2023-07-04T07:16:28.267Z,22.95
2023-07-04T07:17:28.307Z,22.96
2023-07-04T07:18:28.598Z,22.95
2023-07-04T07:19:29.539Z,22.93
2023-07-04T07:20:30.366Z,22.91
2023-07-04T07:21:31.332Z,22.85
2023-07-04T07:22:31.543Z,22.83
2023-07-04T07:23:31.587Z,22.83
2023-07-04T07:24:32.306Z,22.79
2023-07-04T07:25:31.772Z,22.78
2023-07-04T07:26:32.521Z,22.73
2023-07-04T07:27:32.563Z,22.70
2023-07-04T07:27:42.470Z,22.35
2023-07-04T07:28:43.538Z,22.35
2023-07-04T07:29:44.112Z,22.35
2023-07-04T07:30:43.628Z,22.33
2023-07-04T07:31:44.219Z,22.29
2023-07-04T07:32:45.197Z,22.22
2023-07-04T07:33:46.693Z,22.20
2023-07-04T07:34:45.902Z,22.19
2023-07-04T07:35:46.099Z,22.16
2023-07-04T07:36:46.239Z,22.14
2023-07-04T07:37:47.151Z,22.14
2023-07-04T07:38:47.383Z,22.11
2023-07-04T07:39:47.474Z,22.08
2023-07-04T07:40:47.772Z,22.08
2023-07-04T07:41:47.786Z,22.05
2023-07-04T07:42:48.495Z,22.04
2023-07-04T07:43:48.578Z,22.02
2023-07-04T07:44:48.864Z,22.01
2023-07-04T07:45:49.780Z,21.97
2023-07-04T07:46:49.950Z,21.96
2023-07-04T07:47:50.878Z,21.93
2023-07-04T07:48:50.842Z,21.90
2023-07-04T07:49:51.853Z,21.88
2023-07-04T07:50:52.191Z,21.87
2023-07-04T07:51:51.947Z,21.87
2023-07-04T07:52:51.957Z,21.87
2023-07-04T07:53:52.924Z,21.85
2023-07-04T07:54:53.152Z,21.82
2023-07-04T07:55:54.064Z,21.81
2023-07-04T07:56:54.133Z,21.81
2023-07-04T07:57:54.883Z,21.80
2023-07-04T07:58:04.520Z,21.85
2023-07-04T07:59:05.258Z,21.85
2023-07-04T08:00:06.123Z,21.85
2023-07-04T08:01:06.960Z,21.86
2023-07-04T08:02:07.105Z,21.87
2023-07-04T08:03:07.806Z,21.87
2023-07-04T08:04:08.727Z,21.84
2023-07-04T08:05:09.604Z,21.82
2023-07-04T08:06:10.405Z,21.80
2023-07-04T08:07:10.514Z,21.75
2023-07-04T08:08:11.408Z,21.70
2023-07-04T08:09:12.367Z,21.66
2023-07-04T08:10:13.232Z,21.61
2023-07-04T08:11:13.994Z,21.55
2023-07-04T08:12:14.869Z,21.52
2023-07-04T08:13:15.700Z,21.48
2023-07-04T08:14:16.444Z,21.44
2023-07-04T08:15:17.222Z,21.42
2023-07-04T08:16:18.157Z,21.36
2023-07-04T08:17:18.299Z,21.31
2023-07-04T08:18:18.762Z,21.25
2023-07-04T08:19:19.600Z,21.20
2023-07-04T08:20:20.517Z,21.15
2023-07-04T08:21:20.951Z,21.11
2023-07-04T08:22:21.055Z,21.10
2023-07-04T08:23:21.976Z,21.10
2023-07-04T08:24:22.870Z,21.10
2023-07-04T08:25:25.591Z,21.11
2023-07-04T08:26:23.883Z,21.13
2023-07-04T08:27:24.682Z,21.16
2023-07-04T08:28:25.411Z,21.18
2023-07-04T08:28:34.053Z,21.55
2023-07-04T08:29:34.950Z,21.55
2023-07-04T08:30:35.887Z,21.55
2023-07-04T08:31:36.019Z,21.55
2023-07-04T08:32:36.988Z,21.54
2023-07-04T08:33:37.848Z,21.51
2023-07-04T08:34:38.625Z,21.48
2023-07-04T08:35:38.679Z,21.47
2023-07-04T08:36:38.862Z,21.48
2023-07-04T08:37:38.916Z,21.49
2023-07-04T08:38:39.774Z,21.52
2023-07-04T08:39:40.366Z,21.56
2023-07-04T08:40:41.169Z,21.59
2023-07-04T08:41:41.953Z,21.62
2023-07-04T08:42:42.887Z,21.65
2023-07-04T08:43:43.134Z,21.67
2023-07-04T08:44:43.907Z,21.67
2023-07-04T08:45:44.841Z,21.65
2023-07-04T08:46:45.676Z,21.63
2023-07-04T08:47:45.831Z,21.63
2023-07-04T08:48:46.606Z,21.63
2023-07-04T08:49:47.602Z,21.65
2023-07-04T08:50:48.441Z,21.68
2023-07-04T08:51:49.267Z,21.72
2023-07-04T08:52:49.286Z,21.73
2023-07-04T08:53:49.550Z,21.72
2023-07-04T08:54:50.459Z,21.72
2023-07-04T08:55:51.809Z,21.74
2023-07-04T08:56:52.325Z,21.77
2023-07-04T08:57:52.359Z,21.81
2023-07-04T08:58:53.335Z,21.84
2023-07-04T08:59:53.730Z,21.86
2023-07-04T09:00:54.855Z,21.89
2023-07-04T09:01:03.314Z,22.15
2023-07-04T09:02:03.800Z,22.15
2023-07-04T09:03:04.885Z,22.16
2023-07-04T09:04:05.479Z,22.17
2023-07-04T09:05:05.547Z,22.20
2023-07-04T09:06:05.594Z,22.21
2023-07-04T09:07:06.471Z,22.24
2023-07-04T09:08:07.392Z,22.25
2023-07-04T09:09:07.437Z,22.27
2023-07-04T09:10:08.770Z,22.29
2023-07-04T09:11:08.733Z,22.32
2023-07-04T09:12:09.497Z,22.34
2023-07-04T09:13:09.699Z,22.34
2023-07-04T09:14:10.593Z,22.34
2023-07-04T09:15:11.527Z,22.36
2023-07-04T09:16:12.631Z,22.38
2023-07-04T09:17:13.419Z,22.37
2023-07-04T09:18:22.444Z,22.35
2023-07-04T09:19:15.133Z,22.33
2023-07-04T09:20:15.901Z,22.30
2023-07-04T09:21:16.814Z,22.30
2023-07-04T09:22:17.622Z,22.30
2023-07-04T09:23:18.406Z,22.30
2023-07-04T09:24:18.449Z,22.31
2023-07-04T09:25:18.880Z,22.33
2023-07-04T09:26:18.920Z,22.37
2023-07-04T09:27:19.828Z,22.40
2023-07-04T09:28:19.880Z,22.41
2023-07-04T09:29:20.191Z,22.43
2023-07-04T09:30:20.303Z,22.45
2023-07-04T09:31:20.408Z,22.48
2023-07-04T09:31:29.146Z,23.03
2023-07-04T09:32:29.942Z,23.03
2023-07-04T09:33:30.860Z,23.04
2023-07-04T09:34:31.207Z,23.05
2023-07-04T09:35:31.650Z,23.07
2023-07-04T09:36:31.888Z,23.08
2023-07-04T09:37:31.954Z,23.09
2023-07-04T09:38:32.259Z,23.11
2023-07-04T09:39:33.207Z,23.10
2023-07-04T09:40:33.479Z,23.08
2023-07-04T09:41:35.052Z,23.08
2023-07-04T09:42:46.077Z,23.09
2023-07-04T09:43:36.020Z,23.12
2023-07-04T09:44:36.948Z,23.15
2023-07-04T09:45:37.183Z,23.17
2023-07-04T09:46:37.937Z,23.19
2023-07-04T09:47:38.823Z,23.23
2023-07-04T09:48:39.585Z,23.27
2023-07-04T09:49:40.473Z,23.29
2023-07-04T09:50:41.437Z,23.30
2023-07-04T09:51:41.867Z,23.30
2023-07-04T09:52:42.038Z,23.28
2023-07-04T09:53:42.976Z,23.27
2023-07-04T09:54:43.920Z,23.25
2023-07-04T09:55:44.765Z,23.22
2023-07-04T09:56:44.768Z,23.19
2023-07-04T09:57:45.786Z,23.16
2023-07-04T09:58:46.586Z,23.15
2023-07-04T09:59:46.692Z,23.12
2023-07-04T10:00:47.668Z,23.10
2023-07-04T10:01:48.549Z,23.10
2023-07-04T10:02:00.043Z,23.18
2023-07-04T10:03:00.475Z,23.18
2023-07-04T10:04:01.037Z,23.18
2023-07-04T10:05:01.526Z,23.21
2023-07-04T10:06:02.462Z,23.22
2023-07-04T10:07:03.500Z,23.21
2023-07-04T10:08:04.070Z,23.20
2023-07-04T10:09:05.009Z,23.20
2023-07-04T10:10:05.900Z,23.21
2023-07-04T10:11:05.981Z,23.23
2023-07-04T10:12:06.920Z,23.24
2023-07-04T10:13:07.807Z,23.27
2023-07-04T10:14:08.582Z,23.28
2023-07-04T10:15:09.281Z,23.31
2023-07-04T10:16:09.527Z,23.35
2023-07-04T10:17:10.483Z,23.38
2023-07-04T10:18:10.779Z,23.39
2023-07-04T10:19:11.274Z,23.41
2023-07-04T10:20:11.455Z,23.42
2023-07-04T10:21:11.780Z,23.45
2023-07-04T10:22:12.154Z,23.48
2023-07-04T10:23:13.006Z,23.52
2023-07-04T10:24:13.018Z,23.56
2023-07-04T10:25:13.885Z,23.58
2023-07-04T10:26:14.742Z,23.62
2023-07-04T10:27:15.647Z,23.64
2023-07-04T10:28:16.449Z,23.67
2023-07-04T10:29:17.305Z,23.71
2023-07-04T10:30:17.555Z,23.74
2023-07-04T10:31:18.471Z,23.77
2023-07-04T10:32:19.349Z,23.80
2023-07-04T10:33:20.017Z,23.83
2023-07-04T10:33:28.704Z,24.42
2023-07-04T10:34:29.676Z,24.42
2023-07-04T10:35:30.377Z,24.42
2023-07-04T10:36:30.902Z,24.40
2023-07-04T10:37:31.038Z,24.39
2023-07-04T10:38:31.305Z,24.36
2023-07-04T10:39:31.523Z,24.32
2023-07-04T10:40:31.708Z,24.29
2023-07-04T10:41:33.789Z,24.29
2023-07-04T10:42:33.487Z,24.26
2023-07-04T10:43:34.430Z,24.25
2023-07-04T10:44:34.756Z,24.26
2023-07-04T10:45:38.037Z,24.27
2023-07-04T10:46:35.557Z,24.25
2023-07-04T10:47:36.280Z,24.25
2023-07-04T10:48:36.594Z,24.24
2023-07-04T10:49:36.836Z,24.24
2023-07-04T10:50:37.578Z,24.25
2023-07-04T10:51:38.564Z,24.25
2023-07-04T10:52:39.448Z,24.26
2023-07-04T10:53:40.204Z,24.30
2023-07-04T10:54:41.087Z,24.33
2023-07-04T10:55:41.848Z,24.36
2023-07-04T10:56:42.795Z,24.40
2023-07-04T10:57:43.267Z,24.44
2023-07-04T10:58:43.374Z,24.48
2023-07-04T10:59:44.245Z,24.50
2023-07-04T11:00:45.059Z,24.52
2023-07-04T11:01:46.069Z,24.56
2023-07-04T11:02:47.020Z,24.59
2023-07-04T11:03:47.799Z,24.61
2023-07-04T11:04:47.960Z,24.62
2023-07-04T11:05:47.952Z,24.62
2023-07-04T11:05:57.631Z,24.86
2023-07-04T11:06:57.794Z,24.86
2023-07-04T11:07:58.785Z,24.85
2023-07-04T11:08:59.531Z,24.84
2023-07-04T11:10:00.497Z,24.84
2023-07-04T11:11:00.490Z,24.84
2023-07-04T11:12:00.560Z,24.83
2023-07-04T11:13:01.430Z,24.83
2023-07-04T11:14:02.289Z,24.84
2023-07-04T11:15:03.176Z,24.85
2023-07-04T11:16:04.134Z,24.86
2023-07-04T11:17:05.169Z,24.86
2023-07-04T11:18:05.993Z,24.85
2023-07-04T11:19:06.037Z,24.83
2023-07-04T11:20:06.089Z,24.81
2023-07-04T11:21:06.925Z,24.79
2023-07-04T11:22:09.584Z,24.76
2023-07-04T11:23:08.610Z,24.76
2023-07-04T11:24:09.438Z,24.78
2023-07-04T11:25:10.276Z,24.80
2023-07-04T11:26:11.193Z,24.84
2023-07-04T11:27:12.149Z,24.87
2023-07-04T11:28:12.944Z,24.91
2023-07-04T11:29:13.911Z,24.95
2023-07-04T11:30:14.794Z,24.99
2023-07-04T11:31:15.440Z,25.01
2023-07-04T11:32:15.782Z,25.05
2023-07-04T11:33:15.793Z,25.10
2023-07-04T11:34:16.063Z,25.14
2023-07-04T11:35:16.334Z,25.18
2023-07-04T11:36:16.515Z,25.22
2023-07-04T11:37:16.820Z,25.25
2023-07-04T11:37:26.483Z,25.80
2023-07-04T11:38:27.183Z,25.80
2023-07-04T11:39:27.833Z,25.81
2023-07-04T11:40:28.563Z,25.81
2023-07-04T11:41:29.424Z,25.82
2023-07-04T11:42:29.795Z,25.82
2023-07-04T11:43:30.656Z,25.82
2023-07-04T11:44:31.669Z,25.82
2023-07-04T11:45:32.568Z,25.83
2023-07-04T11:46:33.343Z,25.84
2023-07-04T11:47:34.288Z,25.86
2023-07-04T11:48:35.205Z,25.87
2023-07-04T11:49:36.093Z,25.86
2023-07-04T11:50:36.980Z,25.84
2023-07-04T11:51:36.928Z,25.84
2023-07-04T11:52:37.842Z,25.83
2023-07-04T11:53:39.985Z,25.82
2023-07-04T11:54:38.107Z,25.84
2023-07-04T11:55:39.009Z,25.84
2023-07-04T11:56:39.042Z,25.84
2023-07-04T11:57:39.883Z,25.85
2023-07-04T11:58:40.220Z,25.86
2023-07-04T11:59:41.243Z,25.88
2023-07-04T12:00:41.266Z,25.88
2023-07-04T12:01:41.324Z,25.86
2023-07-04T12:02:41.720Z,25.84
2023-07-04T12:03:42.797Z,25.81
2023-07-04T12:04:43.683Z,25.80
2023-07-04T12:05:44.022Z,25.79
2023-07-04T12:06:44.416Z,25.78
2023-07-04T12:07:45.387Z,25.78
2023-07-04T12:08:45.630Z,25.79
2023-07-04T12:08:54.278Z,25.36
2023-07-04T12:09:54.986Z,25.36
2023-07-04T12:10:55.659Z,25.38
2023-07-04T12:11:56.473Z,25.39
2023-07-04T12:12:57.288Z,25.40
2023-07-04T12:13:57.591Z,25.42
2023-07-04T12:14:57.924Z,25.46
2023-07-04T12:15:58.189Z,25.49
2023-07-04T12:16:58.843Z,25.52
2023-07-04T12:17:59.899Z,25.56
2023-07-04T12:19:00.710Z,25.60
2023-07-04T12:20:00.853Z,25.64
2023-07-04T12:21:01.161Z,25.66
2023-07-04T12:22:01.196Z,25.66
2023-07-04T12:23:02.418Z,25.64
2023-07-04T12:24:03.067Z,25.61
2023-07-04T12:25:04.026Z,25.57
2023-07-04T12:26:04.096Z,25.55
2023-07-04T12:27:05.034Z,25.54
2023-07-04T12:28:05.223Z,25.52
2023-07-04T12:30:07.457Z,25.50
2023-07-04T12:32:08.232Z,25.42
2023-07-04T12:33:10.023Z,25.38
2023-07-04T12:34:10.190Z,25.36
2023-07-04T12:35:11.828Z,25.35
2023-07-04T12:36:11.250Z,25.35
2023-07-04T12:37:11.165Z,25.33
2023-07-04T12:38:12.089Z,25.31
2023-07-04T12:39:12.547Z,25.30
2023-07-04T12:40:13.432Z,25.29
2023-07-04T12:41:14.397Z,25.28
2023-07-04T12:41:23.103Z,25.56